createdAt,value
2023-01-25T00:00:51.808Z,24.10
2023-01-25T00:03:18.467Z,24.02
2023-01-25T00:05:45.039Z,26.38
2023-01-25T00:08:11.724Z,26.50
2023-01-25T00:10:38.333Z,27.05
2023-01-25T00:13:04.896Z,25.35
2023-01-25T00:15:31.631Z,27.67
2023-01-25T00:17:58.084Z,25.42
2023-01-25T00:20:24.533Z,23.35
2023-01-25T00:22:51.245Z,26.17
2023-01-25T00:25:17.847Z,24.88
2023-01-25T00:27:44.354Z,24.40
2023-01-25T00:30:11.007Z,28.52
2023-01-25T00:32:57.791Z,26.77
2023-01-25T00:35:30.523Z,27.67
2023-01-25T00:37:57.181Z,23.33
2023-01-25T00:40:25.488Z,24.52
2023-01-25T00:42:52.309Z,27.95
2023-01-25T00:45:19.679Z,30.83
2023-01-25T00:47:46.188Z,28.48
2023-01-25T00:50:12.875Z,30.92
2023-01-25T00:52:39.952Z,28.45
2023-01-25T00:55:07.246Z,11.13
2023-01-25T00:57:34.214Z,24.40
2023-01-25T01:00:00.946Z,28.45
2023-01-25T01:02:27.543Z,26.88
2023-01-25T01:04:56.689Z,28.50
2023-01-25T01:07:23.506Z,26.90
2023-01-25T01:09:52.048Z,23.75
2023-01-25T01:12:18.651Z,28.70
2023-01-25T01:14:45.325Z,29.17
2023-01-25T01:17:11.926Z,26.65
2023-01-25T01:19:39.581Z,20.30
2023-01-25T01:22:07.383Z,31.55
2023-01-25T01:24:33.958Z,27.33
2023-01-25T01:27:00.526Z,26.67
2023-01-25T01:29:27.273Z,18.90
2023-01-25T01:31:54.035Z,24.17
2023-01-25T01:34:25.812Z,31.40
2023-01-25T01:36:53.442Z,27.08
2023-01-25T01:39:20.236Z,29.98
2023-01-25T01:41:46.932Z,31.83
2023-01-25T01:44:22.611Z,29.55
2023-01-25T01:46:59.067Z,29.25
2023-01-25T01:49:31.540Z,28.48
2023-01-25T01:52:09.962Z,29.80
2023-01-25T01:54:40.682Z,32.80
2023-01-25T01:57:11.076Z,25.02
2023-01-25T01:59:42.801Z,26.50
2023-01-25T02:02:09.657Z,29.58
2023-01-25T02:04:36.626Z,30.13
2023-01-25T02:07:28.090Z,31.33
2023-01-25T02:09:54.930Z,31.65
2023-01-25T02:12:23.040Z,29.23
2023-01-25T02:14:50.972Z,32.97
2023-01-25T02:17:33.765Z,32.50
2023-01-25T02:20:06.460Z,30.80
2023-01-25T02:22:41.131Z,28.50
2023-01-25T02:25:09.046Z,31.58
2023-01-25T02:27:38.768Z,31.83
2023-01-25T02:30:05.782Z,31.92
2023-01-25T02:32:32.840Z,33.58
2023-01-25T02:34:59.379Z,33.65
2023-01-25T02:37:26.751Z,31.80
2023-01-25T02:39:53.497Z,32.08
2023-01-25T02:42:20.954Z,36.83
2023-01-25T02:44:48.750Z,34.53
2023-01-25T02:47:15.272Z,32.30
2023-01-25T02:49:41.995Z,31.02
2023-01-25T02:52:09.667Z,25.13
2023-01-25T02:54:36.213Z,34.08
2023-01-25T02:57:05.695Z,35.38
2023-01-25T02:59:40.390Z,32.33
2023-01-25T03:02:08.057Z,30.67
2023-01-25T03:04:35.020Z,32.92
2023-01-25T03:07:02.463Z,34.85
2023-01-25T03:09:29.051Z,33.83
2023-01-25T03:11:55.643Z,34.55
2023-01-25T03:14:22.945Z,34.60
2023-01-25T03:16:49.729Z,27.50
2023-01-25T03:19:19.512Z,27.58
2023-01-25T03:21:46.885Z,23.38
2023-01-25T03:24:14.152Z,31.05
2023-01-25T03:27:04.040Z,30.67
2023-01-25T03:29:39.089Z,31.90
2023-01-25T03:32:11.224Z,33.25
2023-01-25T03:34:37.913Z,28.48
2023-01-25T03:37:04.583Z,24.20
2023-01-25T03:39:33.314Z,31.80
2023-01-25T03:41:59.970Z,29.30
2023-01-25T03:44:26.628Z,31.58
2023-01-25T03:46:53.415Z,35.33
2023-01-25T03:49:21.072Z,34.35
2023-01-25T03:51:47.988Z,30.95
2023-01-25T03:54:15.529Z,27.10
2023-01-25T03:56:42.396Z,35.00
2023-01-25T03:59:23.949Z,36.15
2023-01-25T04:01:50.893Z,36.80
2023-01-25T04:04:18.439Z,35.25
2023-01-25T04:06:46.221Z,32.08
2023-01-25T04:09:14.692Z,33.17
2023-01-25T04:11:49.170Z,38.55
2023-01-25T04:14:15.765Z,38.90
2023-01-25T04:16:48.129Z,36.78
2023-01-25T04:19:28.461Z,35.13
2023-01-25T04:21:58.444Z,33.90
2023-01-25T04:24:29.844Z,34.80
2023-01-25T04:26:57.456Z,34.58
2023-01-25T04:29:35.451Z,25.73
2023-01-25T04:32:07.313Z,30.60
2023-01-25T04:34:34.643Z,34.78
2023-01-25T04:37:01.286Z,38.30
2023-01-25T04:39:31.964Z,35.08
2023-01-25T04:41:58.633Z,75.10
2023-01-25T04:44:25.301Z,32.22
2023-01-25T04:46:51.816Z,41.28
2023-01-25T04:49:18.509Z,23.98
2023-01-25T04:51:46.225Z,35.90
2023-01-25T04:54:12.891Z,24.77
2023-01-25T04:56:40.071Z,27.60
2023-01-25T04:59:07.560Z,36.00
2023-01-25T05:01:34.314Z,33.75
2023-01-25T05:04:04.734Z,34.53
2023-01-25T05:06:40.699Z,41.80
2023-01-25T05:09:07.550Z,28.38
2023-01-25T05:11:35.056Z,41.20
2023-01-25T05:14:06.187Z,40.10
2023-01-25T05:16:33.858Z,44.15
2023-01-25T05:19:01.168Z,40.28
2023-01-25T05:21:54.679Z,44.85
2023-01-25T05:24:21.251Z,48.00
2023-01-25T05:27:00.500Z,40.90
2023-01-25T05:29:31.927Z,39.88
2023-01-25T05:32:05.265Z,45.67
2023-01-25T05:34:32.473Z,48.08
2023-01-25T05:36:59.173Z,42.67
2023-01-25T05:39:26.072Z,43.22
2023-01-25T05:41:53.776Z,35.55
2023-01-25T05:44:20.490Z,33.05
2023-01-25T05:46:49.707Z,35.83
2023-01-25T05:49:17.381Z,32.08
2023-01-25T05:51:44.176Z,35.95
2023-01-25T05:54:15.617Z,30.08
2023-01-25T05:56:49.028Z,31.05
2023-01-25T05:59:17.307Z,32.47
2023-01-25T06:01:44.060Z,37.30
2023-01-25T06:04:19.684Z,36.33
2023-01-25T06:06:46.351Z,32.97
2023-01-25T06:09:13.383Z,32.03
2023-01-25T06:11:43.334Z,29.33
2023-01-25T06:14:09.952Z,27.80
2023-01-25T06:16:36.566Z,32.15
2023-01-25T06:19:26.852Z,29.45
2023-01-25T06:22:09.806Z,26.83
2023-01-25T06:24:36.442Z,31.83
2023-01-25T06:27:03.043Z,30.88
2023-01-25T06:29:29.603Z,27.60
2023-01-25T06:31:56.809Z,30.48
2023-01-25T06:34:24.809Z,23.23
2023-01-25T06:36:52.415Z,30.73
2023-01-25T06:39:18.960Z,31.30
2023-01-25T06:41:46.707Z,28.90
2023-01-25T06:44:13.321Z,28.42
2023-01-25T06:46:39.894Z,29.55
2023-01-25T06:49:06.430Z,33.80
2023-01-25T06:51:32.971Z,35.42
2023-01-25T06:54:01.930Z,40.60
2023-01-25T06:56:28.487Z,42.80
2023-01-25T06:58:55.196Z,35.15
2023-01-25T07:01:26.986Z,34.33
2023-01-25T07:03:54.927Z,32.40
2023-01-25T07:06:22.348Z,43.83
2023-01-25T07:08:48.872Z,42.75
2023-01-25T07:11:16.006Z,37.08
2023-01-25T07:13:43.484Z,34.80
2023-01-25T07:16:11.765Z,37.13
2023-01-25T07:18:38.658Z,33.67
2023-01-25T07:21:06.520Z,55.05
2023-01-25T07:23:33.953Z,47.42
2023-01-25T07:26:01.140Z,34.50
2023-01-25T07:28:27.682Z,33.88
2023-01-25T07:30:54.192Z,42.85
2023-01-25T07:33:20.757Z,36.05
2023-01-25T07:35:48.275Z,46.08
2023-01-25T07:38:14.938Z,36.10
2023-01-25T07:40:41.523Z,34.88
2023-01-25T07:43:08.065Z,36.00
2023-01-25T07:45:36.619Z,31.05
2023-01-25T07:48:09.221Z,33.33
2023-01-25T07:50:35.703Z,31.65
2023-01-25T07:53:02.245Z,33.63
2023-01-25T07:55:28.803Z,28.05
2023-01-25T07:57:55.875Z,24.02
2023-01-25T08:00:24.081Z,25.90
2023-01-25T08:02:51.827Z,28.92
2023-01-25T08:05:18.763Z,31.10
2023-01-25T08:07:46.415Z,27.00
2023-01-25T08:10:12.927Z,32.92
2023-01-25T08:12:39.467Z,33.58
2023-01-25T08:15:06.426Z,43.00
2023-01-25T08:17:33.215Z,38.15
2023-01-25T08:20:00.454Z,34.83
2023-01-25T08:22:27.810Z,34.60
2023-01-25T08:24:54.668Z,36.85
2023-01-25T08:27:21.630Z,36.22
2023-01-25T08:29:50.401Z,39.00
2023-01-25T08:32:17.030Z,35.70
2023-01-25T08:34:43.547Z,36.47
2023-01-25T08:37:10.120Z,35.47
2023-01-25T08:39:37.872Z,38.28
2023-01-25T08:42:04.721Z,41.90
2023-01-25T08:44:31.214Z,45.83
2023-01-25T08:46:57.756Z,57.30
2023-01-25T08:49:24.370Z,45.40
2023-01-25T08:51:50.973Z,37.90
2023-01-25T08:54:17.932Z,39.30
2023-01-25T08:56:44.811Z,42.45
2023-01-25T08:59:11.812Z,39.08
2023-01-25T09:01:38.326Z,37.42
2023-01-25T09:04:05.007Z,39.13
2023-01-25T09:06:32.830Z,42.47
2023-01-25T09:09:00.331Z,41.75
2023-01-25T09:11:26.989Z,40.30
2023-01-25T09:13:53.558Z,39.75
2023-01-25T09:16:29.156Z,45.28
2023-01-25T09:18:56.955Z,38.40
2023-01-25T09:21:23.870Z,38.78
2023-01-25T09:24:04.988Z,40.13
2023-01-25T09:26:33.643Z,38.63
2023-01-25T09:29:00.296Z,44.20
2023-01-25T09:31:30.150Z,40.90
2023-01-25T09:34:32.418Z,34.78
2023-01-25T09:36:58.896Z,43.42
2023-01-25T09:39:25.758Z,43.60
2023-01-25T09:42:14.135Z,43.58
2023-01-25T09:44:41.340Z,49.78
2023-01-25T09:47:22.900Z,39.92
2023-01-25T09:49:49.356Z,42.85
2023-01-25T09:52:16.194Z,52.38
2023-01-25T09:54:47.878Z,50.78
2023-01-25T09:57:16.540Z,41.28
2023-01-25T09:59:44.159Z,91.13
2023-01-25T10:02:29.993Z,77.10
2023-01-25T10:05:00.341Z,68.30
2023-01-25T10:07:53.188Z,45.17
2023-01-25T10:10:39.320Z,46.42
2023-01-25T10:13:11.275Z,52.70
2023-01-25T10:15:40.235Z,47.05
2023-01-25T10:18:15.740Z,42.15
2023-01-25T10:20:42.243Z,40.72
2023-01-25T10:23:24.269Z,40.95
2023-01-25T10:25:50.870Z,35.35
2023-01-25T10:28:20.488Z,41.25
2023-01-25T10:30:54.522Z,36.17
2023-01-25T10:33:21.525Z,35.30
2023-01-25T10:35:49.691Z,39.30
2023-01-25T10:38:19.983Z,36.72
2023-01-25T10:40:48.654Z,39.15
2023-01-25T10:43:18.198Z,37.97
2023-01-25T10:45:44.798Z,40.00
2023-01-25T10:48:13.745Z,43.78
2023-01-25T10:50:43.927Z,43.83
2023-01-25T10:53:21.440Z,44.58
2023-01-25T10:56:17.029Z,39.17
2023-01-25T10:58:47.690Z,39.47
2023-01-25T11:01:34.698Z,40.63
2023-01-25T11:04:01.875Z,42.60
2023-01-25T11:06:30.084Z,37.00
2023-01-25T11:08:56.647Z,38.30
2023-01-25T11:11:25.554Z,41.63
2023-01-25T11:13:54.944Z,44.63
2023-01-25T11:16:39.058Z,45.08
2023-01-25T11:19:24.783Z,45.83
2023-01-25T11:21:55.733Z,41.00
2023-01-25T11:24:25.934Z,50.28
2023-01-25T11:27:10.896Z,47.47
2023-01-25T11:29:37.517Z,46.25
2023-01-25T11:32:11.285Z,48.65
2023-01-25T11:34:37.823Z,41.30
2023-01-25T11:37:23.384Z,45.70
2023-01-25T11:39:53.023Z,43.78
2023-01-25T11:42:31.989Z,42.95
2023-01-25T11:45:17.222Z,38.65
2023-01-25T11:47:47.007Z,45.15
2023-01-25T11:50:22.927Z,52.00
2023-01-25T11:53:14.495Z,47.08
2023-01-25T11:55:47.446Z,46.60
2023-01-25T11:58:33.948Z,57.85
2023-01-25T12:01:08.079Z,58.80
2023-01-25T12:03:53.020Z,56.92
2023-01-25T12:06:28.765Z,52.53
2023-01-25T12:09:03.222Z,55.20
2023-01-25T12:11:48.712Z,46.35
2023-01-25T12:14:18.354Z,44.70
2023-01-25T12:17:03.718Z,61.05
2023-01-25T12:19:42.475Z,50.60
2023-01-25T12:22:15.476Z,46.92
2023-01-25T12:24:54.706Z,53.58
2023-01-25T12:27:21.163Z,52.92
2023-01-25T12:29:47.692Z,55.80
2023-01-25T12:32:19.050Z,59.03
2023-01-25T12:34:51.505Z,55.78
2023-01-25T12:37:21.759Z,54.42
2023-01-25T12:39:59.749Z,56.80
2023-01-25T12:42:31.822Z,57.70
2023-01-25T12:45:13.227Z,48.75
2023-01-25T12:47:43.900Z,46.40
2023-01-25T12:50:15.904Z,49.97
2023-01-25T12:52:46.907Z,38.13
2023-01-25T12:55:14.301Z,46.05
2023-01-25T12:57:58.215Z,44.88
2023-01-25T13:00:45.779Z,49.40
2023-01-25T13:03:20.644Z,53.55
2023-01-25T13:05:59.517Z,31.00
2023-01-25T13:08:45.051Z,45.95
2023-01-25T13:11:21.333Z,41.58
2023-01-25T13:13:47.852Z,43.13
2023-01-25T13:16:30.024Z,41.08
2023-01-25T13:18:57.601Z,41.33
2023-01-25T13:21:47.793Z,38.03
2023-01-25T13:24:23.547Z,37.47
2023-01-25T13:26:53.249Z,35.10
2023-01-25T13:29:30.164Z,35.63
2023-01-25T13:31:59.056Z,30.75
2023-01-25T13:34:34.893Z,27.60
2023-01-25T13:37:16.766Z,30.85
2023-01-25T13:39:44.311Z,39.83
2023-01-25T13:42:10.840Z,32.28
2023-01-25T13:44:39.632Z,24.58
2023-01-25T13:47:09.345Z,29.17
2023-01-25T13:49:51.133Z,29.58
2023-01-25T13:52:19.459Z,23.30
2023-01-25T13:54:46.815Z,27.00
2023-01-25T13:57:14.481Z,31.70
2023-01-25T13:59:41.335Z,23.35
2023-01-25T14:02:19.769Z,18.40
2023-01-25T14:04:48.314Z,24.23
2023-01-25T14:07:16.958Z,28.33
2023-01-25T14:09:44.248Z,27.63
2023-01-25T14:12:11.274Z,28.77
2023-01-25T14:14:38.388Z,30.85
2023-01-25T14:17:15.482Z,28.40
2023-01-25T14:19:44.574Z,31.15
2023-01-25T14:22:12.788Z,25.92
2023-01-25T14:24:40.052Z,22.48
2023-01-25T14:27:07.089Z,27.65
2023-01-25T14:29:35.427Z,31.20
2023-01-25T14:32:02.533Z,45.45
2023-01-25T14:34:29.175Z,78.60
2023-01-25T14:37:07.375Z,48.53
2023-01-25T14:39:34.289Z,23.50
2023-01-25T14:42:02.169Z,23.30
2023-01-25T14:44:29.293Z,27.67
2023-01-25T14:47:14.786Z,30.42
2023-01-25T14:49:41.484Z,86.95
2023-01-25T14:52:13.592Z,99.13
2023-01-25T14:54:53.944Z,49.40
2023-01-25T14:57:40.884Z,28.95
2023-01-25T15:00:31.816Z,32.53
2023-01-25T15:02:59.788Z,47.70
2023-01-25T15:05:27.870Z,23.00
2023-01-25T15:07:56.192Z,24.75
2023-01-25T15:10:24.847Z,25.08
2023-01-25T15:13:18.084Z,27.70
2023-01-25T15:16:00.470Z,27.45
2023-01-25T15:18:46.240Z,34.45
2023-01-25T15:21:17.289Z,29.92
2023-01-25T15:23:45.091Z,29.25
2023-01-25T15:26:21.895Z,31.38
2023-01-25T15:28:50.416Z,29.75
2023-01-25T15:31:23.210Z,39.55
2023-01-25T15:33:50.114Z,35.58
2023-01-25T15:36:17.846Z,39.95
2023-01-25T15:38:44.870Z,28.45
2023-01-25T15:41:12.393Z,30.30
2023-01-25T15:43:39.373Z,32.25
2023-01-25T15:46:06.998Z,32.90
2023-01-25T15:48:35.986Z,31.33
2023-01-25T15:51:03.102Z,32.33
2023-01-25T15:53:29.985Z,34.80
2023-01-25T15:56:01.291Z,38.55
2023-01-25T15:58:30.833Z,36.55
2023-01-25T16:00:57.514Z,37.30
2023-01-25T16:03:24.099Z,36.25
2023-01-25T16:05:53.771Z,32.33
2023-01-25T16:08:21.289Z,39.00
2023-01-25T16:10:48.011Z,52.90
2023-01-25T16:13:14.611Z,145.57
2023-01-25T16:15:42.296Z,65.32
2023-01-25T16:18:13.193Z,45.50
2023-01-25T16:20:40.137Z,41.42
2023-01-25T16:23:08.337Z,38.05
2023-01-25T16:25:34.959Z,40.78
2023-01-25T16:28:01.517Z,42.45
2023-01-25T16:30:31.148Z,37.03
2023-01-25T16:32:57.984Z,41.33
2023-01-25T16:35:24.750Z,43.10
2023-01-25T16:37:52.518Z,44.83
2023-01-25T16:40:24.445Z,44.45
2023-01-25T16:42:51.460Z,41.47
2023-01-25T16:45:19.487Z,49.20
2023-01-25T16:47:47.540Z,50.22
2023-01-25T16:50:15.574Z,39.92
2023-01-25T16:52:43.489Z,38.55
2023-01-25T16:55:13.765Z,43.05
2023-01-25T16:57:41.398Z,72.47
2023-01-25T17:00:11.169Z,137.00
2023-01-25T17:02:41.859Z,65.25
2023-01-25T17:05:11.104Z,40.85
2023-01-25T17:07:37.736Z,40.45
2023-01-25T17:10:06.438Z,52.78
2023-01-25T17:12:33.349Z,48.67
2023-01-25T17:15:00.243Z,43.03
2023-01-25T17:17:31.195Z,43.45
2023-01-25T17:19:57.970Z,41.20
2023-01-25T17:22:24.867Z,54.13
2023-01-25T17:24:51.484Z,37.22
2023-01-25T17:27:18.144Z,38.75
2023-01-25T17:29:46.011Z,41.38
2023-01-25T17:32:12.744Z,37.33
2023-01-25T17:34:39.297Z,36.85
2023-01-25T17:37:05.829Z,45.22
2023-01-25T17:39:33.032Z,55.45
2023-01-25T17:41:59.638Z,45.72
2023-01-25T17:44:26.528Z,48.95
2023-01-25T17:46:53.112Z,45.88
2023-01-25T17:49:19.985Z,47.72
2023-01-25T17:51:46.942Z,48.60
2023-01-25T17:54:13.706Z,49.63
2023-01-25T17:56:40.560Z,47.92
2023-01-25T17:59:08.912Z,60.97
2023-01-25T18:01:36.032Z,61.75
2023-01-25T18:04:06.068Z,64.00
2023-01-25T18:06:32.837Z,63.03
2023-01-25T18:09:00.797Z,131.70
2023-01-25T18:11:30.892Z,66.07
2023-01-25T18:13:59.009Z,64.68
2023-01-25T18:16:26.723Z,60.08
2023-01-25T18:18:54.739Z,72.10
2023-01-25T18:21:25.084Z,63.00
2023-01-25T18:24:02.088Z,65.30
2023-01-25T18:26:30.010Z,67.75
2023-01-25T18:29:02.713Z,73.43
2023-01-25T18:31:29.692Z,70.40
2023-01-25T18:33:58.069Z,66.68
2023-01-25T18:36:25.296Z,54.65
2023-01-25T18:38:54.718Z,61.60
2023-01-25T18:41:21.415Z,65.13
2023-01-25T18:43:51.504Z,64.20
2023-01-25T18:46:18.254Z,53.67
2023-01-25T18:48:47.267Z,57.13
2023-01-25T18:51:15.612Z,46.85
2023-01-25T18:53:42.804Z,57.28
2023-01-25T18:56:16.377Z,56.08
2023-01-25T18:58:43.895Z,53.35
2023-01-25T19:01:14.210Z,54.13
2023-01-25T19:03:41.455Z,60.55
2023-01-25T19:06:08.306Z,60.25
2023-01-25T19:08:43.051Z,39.88
2023-01-25T19:11:11.545Z,47.83
2023-01-25T19:13:39.136Z,43.45
2023-01-25T19:16:06.172Z,34.78
2023-01-25T19:18:34.600Z,49.78
2023-01-25T19:21:01.417Z,29.00
2023-01-25T19:23:38.150Z,48.28
2023-01-25T19:26:06.210Z,42.13
2023-01-25T19:28:34.612Z,46.00
2023-01-25T19:31:21.633Z,21.98
2023-01-25T19:33:48.928Z,44.65
2023-01-25T19:36:18.231Z,47.47
2023-01-25T19:38:46.580Z,49.42
2023-01-25T19:41:14.525Z,44.97
2023-01-25T19:43:41.732Z,46.53
2023-01-25T19:46:11.415Z,45.90
2023-01-25T19:48:38.662Z,25.38
2023-01-25T19:51:16.507Z,32.67
2023-01-25T19:53:47.547Z,41.55
2023-01-25T19:56:16.280Z,40.20
2023-01-25T19:58:43.393Z,44.00
2023-01-25T20:01:11.104Z,41.03
2023-01-25T20:03:38.395Z,45.75
2023-01-25T20:06:07.159Z,41.70
2023-01-25T20:08:38.047Z,39.45
2023-01-25T20:11:06.725Z,40.22
2023-01-25T20:13:33.804Z,40.67
2023-01-25T20:16:00.422Z,36.70
2023-01-25T20:18:27.565Z,39.70
2023-01-25T20:20:55.367Z,34.80
2023-01-25T20:23:22.146Z,40.90
2023-01-25T20:25:55.969Z,38.53
2023-01-25T20:28:22.688Z,36.83
2023-01-25T20:30:49.294Z,36.97
2023-01-25T20:33:16.528Z,35.33
2023-01-25T20:35:43.081Z,27.20
2023-01-25T20:38:09.931Z,31.33
2023-01-25T20:40:36.586Z,31.40
2023-01-25T20:43:03.332Z,31.92
2023-01-25T20:45:29.987Z,37.72
2023-01-25T20:47:56.621Z,21.73
2023-01-25T20:50:23.081Z,33.90
2023-01-25T20:52:49.656Z,34.55
2023-01-25T20:55:16.336Z,38.28
2023-01-25T20:57:43.098Z,30.15
2023-01-25T21:00:10.317Z,32.60
2023-01-25T21:02:40.021Z,28.08
2023-01-25T21:05:06.889Z,38.75
2023-01-25T21:07:33.399Z,40.08
2023-01-25T21:10:00.072Z,32.70
2023-01-25T21:12:27.833Z,31.17
2023-01-25T21:14:54.418Z,25.80
2023-01-25T21:17:20.982Z,33.30
2023-01-25T21:19:47.954Z,32.33
2023-01-25T21:22:14.845Z,38.80
2023-01-25T21:24:41.348Z,35.83
2023-01-25T21:27:08.816Z,42.20
2023-01-25T21:29:35.353Z,36.58
2023-01-25T21:32:01.972Z,33.70
2023-01-25T21:34:30.944Z,32.13
2023-01-25T21:36:57.580Z,34.15
2023-01-25T21:39:24.116Z,29.70
2023-01-25T21:41:50.680Z,34.88
2023-01-25T21:44:36.140Z,32.17
2023-01-25T21:47:28.869Z,34.05
2023-01-25T21:50:07.845Z,33.20
2023-01-25T21:52:36.343Z,33.58
2023-01-25T21:55:03.235Z,30.95
2023-01-25T21:57:29.805Z,35.20
2023-01-25T21:59:56.258Z,40.47
2023-01-25T22:02:22.978Z,36.33
2023-01-25T22:04:49.537Z,36.72
2023-01-25T22:07:16.273Z,37.50
2023-01-25T22:09:42.927Z,30.52
2023-01-25T22:12:09.522Z,38.53
2023-01-25T22:14:36.709Z,34.80
2023-01-25T22:17:03.548Z,31.83
2023-01-25T22:19:30.232Z,33.25
2023-01-25T22:21:56.791Z,33.88
2023-01-25T22:24:23.407Z,36.97
2023-01-25T22:27:04.754Z,35.90
2023-01-25T22:29:33.034Z,37.17
2023-01-25T22:31:59.568Z,40.80
2023-01-25T22:34:26.154Z,37.45
2023-01-25T22:36:52.649Z,38.65
2023-01-25T22:39:19.167Z,37.95
2023-01-25T22:41:45.710Z,35.85
2023-01-25T22:44:14.489Z,35.70
2023-01-25T22:46:41.090Z,32.97
2023-01-25T22:49:07.739Z,37.17
2023-01-25T22:51:34.413Z,32.55
2023-01-25T22:54:01.144Z,35.47
2023-01-25T22:56:28.948Z,37.53
2023-01-25T22:58:55.457Z,34.45
2023-01-25T23:01:23.562Z,39.65
2023-01-25T23:03:50.706Z,37.97
2023-01-25T23:06:18.782Z,38.92
2023-01-25T23:08:45.952Z,38.90
2023-01-25T23:11:20.158Z,42.30
2023-01-25T23:14:07.099Z,35.42
2023-01-25T23:16:34.373Z,38.03
2023-01-25T23:19:01.044Z,39.95
2023-01-25T23:21:28.307Z,44.53
2023-01-25T23:23:55.509Z,43.17
2023-01-25T23:26:22.662Z,48.25
2023-01-25T23:28:53.627Z,43.10
2023-01-25T23:31:25.152Z,44.05
2023-01-25T23:33:52.878Z,41.83
2023-01-25T23:36:21.680Z,44.25
2023-01-25T23:38:48.685Z,46.80
2023-01-25T23:41:15.867Z,46.72
2023-01-25T23:43:42.530Z,48.35
2023-01-25T23:46:09.406Z,47.28
2023-01-25T23:48:36.246Z,44.88
2023-01-25T23:51:02.981Z,47.30
2023-01-25T23:53:30.994Z,46.67
2023-01-25T23:56:01.532Z,49.63
2023-01-25T23:58:28.498Z,50.63
